createdAt,value
2019-04-28T00:01:17.731Z,3.50
2019-04-28T00:03:46.910Z,3.30
2019-04-28T00:06:16.096Z,3.37
2019-04-28T00:08:45.254Z,3.50
2019-04-28T00:11:14.500Z,3.50
2019-04-28T00:13:43.682Z,3.60
2019-04-28T00:16:12.864Z,3.10
2019-04-28T00:18:42.047Z,3.13
2019-04-28T00:21:17.607Z,3.27
2019-04-28T00:24:54.861Z,3.57
2019-04-28T00:27:24.086Z,3.57
2019-04-28T00:29:53.305Z,3.40
2019-04-28T00:32:22.515Z,3.80
2019-04-28T00:34:51.702Z,3.53
2019-04-28T00:37:25.793Z,3.60
2019-04-28T00:39:54.988Z,3.77
2019-04-28T00:42:24.148Z,3.40
2019-04-28T00:44:53.311Z,3.97
2019-04-28T00:47:22.504Z,3.13
2019-04-28T00:49:52.054Z,4.23
2019-04-28T00:52:22.200Z,4.43
2019-04-28T00:54:52.345Z,4.80
2019-04-28T00:57:21.062Z,4.63
2019-04-28T00:59:56.826Z,3.60
2019-04-28T01:02:25.254Z,4.40
2019-04-28T01:04:54.462Z,4.23
2019-04-28T01:07:23.677Z,4.20
2019-04-28T01:09:52.870Z,4.07
2019-04-28T01:12:22.089Z,4.77
2019-04-28T01:14:52.893Z,4.77
2019-04-28T01:17:25.701Z,4.93
2019-04-28T01:19:54.914Z,4.60
2019-04-28T01:22:24.107Z,4.43
2019-04-28T01:24:53.304Z,4.60
2019-04-28T01:27:27.784Z,4.00
2019-04-28T01:30:07.587Z,4.53
2019-04-28T01:32:31.325Z,4.43
2019-04-28T01:35:00.523Z,4.10
2019-04-28T01:37:29.721Z,3.70
2019-04-28T01:39:59.661Z,4.10
2019-04-28T01:42:30.099Z,4.10
2019-04-28T01:44:57.313Z,4.30
2019-04-28T01:47:26.494Z,3.50
2019-04-28T01:49:55.676Z,4.13
2019-04-28T01:52:24.853Z,3.83
2019-04-28T01:54:54.040Z,3.87
2019-04-28T01:57:23.210Z,4.27
2019-04-28T01:59:52.404Z,4.30
2019-04-28T02:02:21.579Z,4.13
2019-04-28T02:04:50.800Z,4.30
2019-04-28T02:07:20.596Z,4.33
2019-04-28T02:09:49.547Z,4.00
2019-04-28T02:12:20.259Z,4.33
2019-04-28T02:14:47.638Z,4.40
2019-04-28T02:17:16.951Z,4.23
2019-04-28T02:19:46.193Z,4.30
2019-04-28T02:22:20.979Z,4.10
2019-04-28T02:24:51.300Z,4.23
2019-04-28T02:27:20.490Z,4.63
2019-04-28T02:29:49.984Z,4.03
2019-04-28T02:32:23.906Z,3.80
2019-04-28T02:34:50.642Z,4.00
2019-04-28T02:37:20.559Z,3.50
2019-04-28T02:39:49.872Z,3.37
2019-04-28T02:42:16.965Z,2.93
2019-04-28T02:44:46.136Z,3.37
2019-04-28T02:47:15.327Z,3.30
2019-04-28T02:49:50.393Z,3.20
2019-04-28T02:52:22.397Z,3.47
2019-04-28T02:54:51.561Z,3.43
2019-04-28T02:57:21.073Z,3.50
2019-04-28T02:59:50.824Z,3.87
2019-04-28T03:02:20.803Z,3.13
2019-04-28T03:04:50.683Z,2.90
2019-04-28T03:07:17.755Z,3.97
2019-04-28T03:09:47.002Z,3.13
2019-04-28T03:12:16.175Z,3.23
2019-04-28T03:14:45.367Z,3.17
2019-04-28T03:17:14.599Z,3.37
2019-04-28T03:19:43.796Z,3.07
2019-04-28T03:22:13.023Z,3.07
2019-04-28T03:24:42.466Z,2.90
2019-04-28T03:27:20.480Z,3.33
2019-04-28T03:29:52.566Z,3.13
2019-04-28T03:32:43.096Z,3.43
2019-04-28T03:34:56.289Z,3.13
2019-04-28T03:37:25.515Z,3.37
2019-04-28T03:39:54.694Z,2.57
2019-04-28T03:42:23.870Z,3.53
2019-04-28T03:44:53.131Z,3.07
2019-04-28T03:47:22.305Z,3.13
2019-04-28T03:49:51.623Z,2.90
2019-04-28T03:52:21.555Z,3.40
2019-04-28T03:54:50.831Z,3.40
2019-04-28T03:57:21.544Z,3.53
2019-04-28T03:59:50.886Z,3.23
2019-04-28T04:02:17.569Z,3.30
2019-04-28T04:04:46.745Z,3.87
2019-04-28T04:07:17.214Z,3.10
2019-04-28T04:09:51.489Z,3.70
2019-04-28T04:12:31.370Z,3.83
2019-04-28T04:15:04.896Z,2.80
2019-04-28T04:17:38.636Z,3.03
2019-04-28T04:20:07.276Z,3.90
2019-04-28T04:22:36.473Z,3.60
2019-04-28T04:25:08.965Z,4.73
2019-04-28T04:27:36.080Z,4.17
2019-04-28T04:30:05.398Z,4.70
2019-04-28T04:32:34.554Z,4.87
2019-04-28T04:35:04.106Z,5.73
2019-04-28T04:37:33.285Z,5.47
2019-04-28T04:40:02.500Z,5.00
2019-04-28T04:42:31.685Z,5.30
2019-04-28T04:45:00.862Z,6.50
2019-04-28T04:47:32.932Z,6.30
2019-04-28T04:50:00.576Z,5.83
2019-04-28T04:52:30.425Z,5.97
2019-04-28T04:55:01.055Z,5.73
2019-04-28T04:57:30.696Z,5.70
2019-04-28T05:00:00.153Z,6.30
2019-04-28T05:02:51.148Z,5.57
2019-04-28T05:05:15.654Z,5.57
2019-04-28T05:07:44.817Z,6.30
2019-04-28T05:10:14.005Z,5.03
2019-04-28T05:12:44.644Z,5.23
2019-04-28T05:15:13.829Z,4.53
2019-04-28T05:17:43.009Z,5.10
2019-04-28T05:20:12.226Z,5.37
2019-04-28T05:22:50.585Z,5.30
2019-04-28T05:25:29.258Z,4.73
2019-04-28T05:27:54.517Z,4.20
2019-04-28T05:30:23.341Z,3.60
2019-04-28T05:32:56.290Z,3.50
2019-04-28T05:35:25.043Z,3.80
2019-04-28T05:37:50.993Z,3.37
2019-04-28T05:40:20.622Z,3.23
2019-04-28T05:42:55.001Z,3.70
2019-04-28T05:45:25.191Z,3.27
2019-04-28T05:47:54.560Z,3.43
2019-04-28T05:50:29.651Z,3.07
2019-04-28T05:53:15.996Z,3.20
2019-04-28T05:55:50.155Z,3.20
2019-04-28T05:58:27.304Z,3.03
2019-04-28T06:01:00.834Z,3.03
2019-04-28T06:03:34.476Z,2.90
2019-04-28T06:06:03.673Z,2.97
2019-04-28T06:08:37.477Z,2.70
2019-04-28T06:11:12.189Z,2.73
2019-04-28T06:13:41.393Z,3.00
2019-04-28T06:16:10.588Z,3.00
2019-04-28T06:18:42.104Z,2.87
2019-04-28T06:21:08.950Z,2.60
2019-04-28T06:23:38.126Z,2.80
2019-04-28T06:27:36.648Z,2.70
2019-04-28T06:30:05.884Z,2.83
2019-04-28T06:32:35.087Z,3.07
2019-04-28T06:35:04.356Z,2.87
2019-04-28T06:37:33.562Z,2.83
2019-04-28T06:40:02.805Z,2.43
2019-04-28T06:42:31.984Z,2.33
2019-04-28T06:45:01.158Z,2.60
2019-04-28T06:47:30.345Z,3.20
2019-04-28T06:49:59.554Z,2.87
2019-04-28T06:52:30.135Z,2.57
2019-04-28T06:55:00.154Z,2.53
2019-04-28T06:57:29.349Z,2.47
2019-04-28T06:59:58.522Z,2.43
2019-04-28T07:02:27.762Z,2.70
2019-04-28T07:05:02.256Z,2.60
2019-04-28T07:07:26.173Z,2.50
2019-04-28T07:09:57.891Z,2.73
2019-04-28T07:12:28.300Z,3.57
2019-04-28T07:14:57.526Z,3.00
2019-04-28T07:17:26.721Z,3.30
2019-04-28T07:20:00.290Z,2.70
2019-04-28T07:22:30.333Z,3.87
2019-04-28T07:25:03.301Z,3.33
2019-04-28T07:27:32.560Z,2.90
2019-04-28T07:30:01.732Z,2.80
2019-04-28T07:32:30.922Z,2.80
2019-04-28T07:35:00.077Z,2.60
2019-04-28T07:37:30.522Z,2.80
2019-04-28T07:39:59.713Z,3.50
2019-04-28T07:42:28.901Z,2.53
2019-04-28T07:44:58.114Z,2.77
2019-04-28T07:47:27.320Z,3.20
2019-04-28T07:49:56.516Z,3.20
2019-04-28T07:52:33.896Z,5.10
2019-04-28T07:55:05.557Z,3.30
2019-04-28T07:57:34.809Z,2.60
2019-04-28T08:00:04.210Z,2.90
2019-04-28T08:02:33.357Z,2.80
2019-04-28T08:05:06.250Z,2.63
2019-04-28T08:07:35.425Z,3.17
2019-04-28T08:10:04.616Z,3.07
2019-04-28T08:12:33.817Z,3.10
2019-04-28T08:15:05.462Z,3.20
2019-04-28T08:17:34.685Z,2.63
2019-04-28T08:20:05.682Z,3.47
2019-04-28T08:22:33.295Z,4.70
2019-04-28T08:25:03.727Z,3.80
2019-04-28T08:27:32.897Z,3.10
2019-04-28T08:30:02.105Z,4.57
2019-04-28T08:32:35.532Z,3.33
2019-04-28T08:35:04.794Z,3.30
2019-04-28T08:37:34.059Z,3.40
2019-04-28T08:40:03.306Z,3.80
2019-04-28T08:42:33.817Z,3.60
2019-04-28T08:45:03.021Z,3.80
2019-04-28T08:47:32.190Z,3.87
2019-04-28T08:50:01.479Z,3.53
2019-04-28T08:52:30.712Z,3.87
2019-04-28T08:54:59.885Z,3.63
2019-04-28T08:57:30.355Z,3.53
2019-04-28T09:00:00.756Z,3.80
2019-04-28T09:02:29.918Z,4.10
2019-04-28T09:05:00.384Z,3.93
2019-04-28T09:07:29.565Z,3.80
2019-04-28T09:09:58.781Z,4.12
2019-04-28T09:12:29.203Z,4.50
2019-04-28T09:15:00.826Z,4.53
2019-04-28T09:17:31.286Z,4.07
2019-04-28T09:20:01.715Z,4.20
2019-04-28T09:22:30.887Z,3.80
2019-04-28T09:25:01.335Z,3.83
2019-04-28T09:27:30.510Z,3.70
2019-04-28T09:29:59.744Z,3.90
2019-04-28T09:32:28.934Z,3.83
2019-04-28T09:34:58.138Z,4.50
2019-04-28T09:37:29.773Z,4.50
2019-04-28T09:40:01.792Z,3.73
2019-04-28T09:42:36.513Z,4.57
2019-04-28T09:45:07.281Z,4.10
2019-04-28T09:47:36.472Z,3.60
2019-04-28T09:50:05.712Z,4.10
2019-04-28T09:52:34.893Z,4.13
2019-04-28T09:55:04.120Z,3.93
2019-04-28T09:57:34.633Z,3.83
2019-04-28T10:00:03.873Z,4.00
2019-04-28T10:02:34.281Z,4.50
2019-04-28T10:05:03.838Z,4.93
2019-04-28T10:07:33.025Z,4.10
2019-04-28T10:10:05.833Z,3.93
2019-04-28T10:12:35.009Z,4.27
2019-04-28T10:15:05.744Z,3.90
2019-04-28T10:17:37.287Z,4.33
2019-04-28T10:20:06.497Z,3.90
2019-04-28T10:22:35.717Z,3.73
2019-04-28T10:25:06.644Z,3.50
2019-04-28T10:27:35.826Z,4.20
2019-04-28T10:30:06.422Z,3.77
2019-04-28T10:32:35.599Z,4.70
2019-04-28T10:35:06.115Z,3.87
2019-04-28T10:37:35.302Z,3.83
2019-04-28T10:40:08.700Z,3.70
2019-04-28T10:42:37.876Z,3.67
2019-04-28T10:45:07.333Z,4.13
2019-04-28T10:47:36.530Z,3.60
2019-04-28T10:50:08.165Z,4.10
2019-04-28T10:52:37.353Z,3.83
2019-04-28T10:55:07.391Z,4.30
2019-04-28T10:57:36.576Z,3.93
2019-04-28T11:00:07.089Z,4.00
2019-04-28T11:02:37.468Z,3.57
2019-04-28T11:05:10.986Z,3.77
2019-04-28T11:07:40.173Z,3.93
2019-04-28T11:10:13.476Z,3.40
2019-04-28T11:12:42.704Z,4.70
2019-04-28T11:15:17.169Z,3.80
2019-04-28T11:17:46.345Z,3.67
2019-04-28T11:20:15.537Z,3.70
2019-04-28T11:22:47.184Z,3.60
2019-04-28T11:25:16.397Z,3.93
2019-04-28T11:27:46.834Z,3.70
2019-04-28T11:30:16.523Z,4.03
2019-04-28T11:32:51.281Z,4.10
2019-04-28T11:35:24.880Z,3.87
2019-04-28T11:37:54.105Z,4.67
2019-04-28T11:40:25.789Z,4.27
2019-04-28T11:42:54.989Z,3.75
2019-04-28T11:45:24.212Z,3.90
2019-04-28T11:47:54.714Z,3.45
2019-04-28T11:50:23.921Z,3.93
2019-04-28T11:52:53.113Z,3.83
2019-04-28T11:55:25.897Z,3.43
2019-04-28T11:57:55.075Z,2.87
2019-04-28T12:00:27.423Z,2.63
2019-04-28T12:02:56.617Z,2.50
2019-04-28T12:05:34.624Z,3.13
2019-04-28T12:08:00.045Z,3.37
2019-04-28T12:10:32.227Z,3.03
2019-04-28T12:13:10.255Z,2.97
2019-04-28T12:15:46.204Z,3.47
2019-04-28T12:18:53.494Z,2.87
2019-04-28T12:21:22.971Z,2.87
2019-04-28T12:23:52.154Z,2.90
2019-04-28T12:26:21.339Z,3.37
2019-04-28T12:28:50.770Z,2.63
2019-04-28T12:31:21.262Z,2.80
2019-04-28T12:33:50.529Z,3.13
2019-04-28T12:36:20.999Z,2.50
2019-04-28T12:38:50.205Z,3.10
2019-04-28T12:41:19.406Z,2.80
2019-04-28T12:43:48.572Z,2.90
2019-04-28T12:46:17.749Z,2.70
2019-04-28T12:48:46.935Z,2.57
2019-04-28T12:51:16.121Z,3.63
2019-04-28T12:53:46.520Z,2.57
2019-04-28T12:56:16.894Z,1.90
2019-04-28T12:58:46.053Z,2.23
2019-04-28T13:01:19.566Z,1.83
2019-04-28T13:03:58.010Z,2.50
2019-04-28T13:06:28.566Z,2.47
2019-04-28T13:08:57.733Z,2.20
2019-04-28T13:11:27.636Z,2.73
2019-04-28T13:13:58.058Z,2.90
2019-04-28T13:16:27.315Z,3.30
2019-04-28T13:18:56.528Z,3.00
2019-04-28T13:21:25.698Z,3.20
2019-04-28T13:23:57.009Z,3.27
2019-04-28T13:26:26.166Z,3.60
2019-04-28T13:28:55.355Z,3.13
2019-04-28T13:31:24.633Z,3.40
2019-04-28T13:33:56.608Z,3.10
2019-04-28T13:36:23.922Z,3.43
2019-04-28T13:38:53.270Z,5.07
2019-04-28T13:41:23.658Z,4.67
2019-04-28T13:43:53.156Z,4.10
2019-04-28T13:46:22.370Z,3.90
2019-04-28T13:48:51.542Z,3.80
2019-04-28T13:51:21.965Z,3.63
2019-04-28T13:53:51.134Z,3.97
2019-04-28T13:56:20.309Z,3.37
2019-04-28T13:58:55.505Z,3.90
2019-04-28T14:01:50.344Z,4.30
2019-04-28T14:04:26.399Z,3.97
2019-04-28T14:07:04.893Z,3.90
2019-04-28T14:09:34.118Z,3.80
2019-04-28T14:12:03.331Z,4.20
2019-04-28T14:14:32.568Z,3.73
2019-04-28T14:17:01.792Z,3.97
2019-04-28T14:19:31.265Z,4.53
2019-04-28T14:22:00.463Z,4.27
2019-04-28T14:24:29.639Z,4.30
2019-04-28T14:27:01.366Z,4.43
2019-04-28T14:29:30.536Z,4.50
2019-04-28T14:31:59.696Z,4.63
2019-04-28T14:34:30.148Z,5.07
2019-04-28T14:37:00.564Z,5.00
2019-04-28T14:39:32.317Z,4.23
2019-04-28T14:42:01.555Z,4.57
2019-04-28T14:44:30.786Z,5.13
2019-04-28T14:47:01.293Z,3.83
2019-04-28T14:49:30.601Z,4.47
2019-04-28T14:51:59.693Z,4.33
2019-04-28T14:54:28.889Z,4.07
2019-04-28T14:56:59.389Z,4.50
2019-04-28T14:59:28.633Z,4.37
2019-04-28T15:02:31.578Z,4.67
2019-04-28T15:05:06.184Z,5.13
2019-04-28T15:07:42.874Z,5.13
2019-04-28T15:10:16.545Z,5.17
2019-04-28T15:12:45.886Z,4.87
2019-04-28T15:15:15.369Z,5.00
2019-04-28T15:17:44.717Z,5.40
2019-04-28T15:20:15.296Z,5.17
2019-04-28T15:22:44.461Z,4.90
2019-04-28T15:25:16.166Z,5.17
2019-04-28T15:27:45.383Z,5.90
2019-04-28T15:30:14.753Z,6.50
2019-04-28T15:32:44.046Z,6.50
2019-04-28T15:35:13.265Z,7.23
2019-04-28T15:37:42.487Z,7.40
2019-04-28T15:40:13.402Z,6.70
2019-04-28T15:42:43.557Z,7.47
2019-04-28T15:45:12.867Z,7.13
2019-04-28T15:47:42.097Z,7.77
2019-04-28T15:50:11.303Z,7.60
2019-04-28T15:52:40.549Z,7.20
2019-04-28T15:55:10.153Z,8.07
2019-04-28T15:57:39.397Z,7.00
2019-04-28T16:00:09.262Z,7.40
2019-04-28T16:02:38.437Z,7.40
2019-04-28T16:05:08.840Z,8.30
2019-04-28T16:07:39.005Z,8.13
2019-04-28T16:10:08.233Z,8.90
2019-04-28T16:12:37.498Z,8.37
2019-04-28T16:15:07.521Z,7.33
2019-04-28T16:17:36.058Z,7.33
2019-04-28T16:20:06.586Z,8.40
2019-04-28T16:22:36.679Z,8.57
2019-04-28T16:25:07.545Z,8.03
2019-04-28T16:27:37.310Z,8.97
2019-04-28T16:30:10.199Z,8.03
2019-04-28T16:32:39.498Z,8.20
2019-04-28T16:35:09.179Z,8.83
2019-04-28T16:37:39.707Z,7.87
2019-04-28T16:40:09.603Z,7.23
2019-04-28T16:42:39.826Z,7.73
2019-04-28T16:45:09.668Z,8.30
2019-04-28T16:47:38.914Z,8.47
2019-04-28T16:50:08.203Z,7.17
2019-04-28T16:52:37.454Z,6.83
2019-04-28T16:55:17.045Z,7.17
2019-04-28T16:58:23.882Z,6.90
2019-04-28T17:00:59.433Z,6.40
2019-04-28T17:03:28.625Z,6.77
2019-04-28T17:05:57.825Z,7.90
2019-04-28T17:08:27.128Z,8.07
2019-04-28T17:10:57.568Z,7.87
2019-04-28T17:13:26.882Z,8.33
2019-04-28T17:15:56.637Z,8.47
2019-04-28T17:18:25.961Z,8.43
2019-04-28T17:20:55.285Z,8.00
2019-04-28T17:23:25.785Z,9.27
2019-04-28T17:25:55.001Z,8.30
2019-04-28T17:28:24.253Z,9.43
2019-04-28T17:30:53.529Z,9.73
2019-04-28T17:33:23.473Z,9.80
2019-04-28T17:35:52.879Z,11.67
2019-04-28T17:38:22.159Z,11.43
2019-04-28T17:40:51.374Z,10.30
2019-04-28T17:43:21.828Z,10.67
2019-04-28T17:45:51.002Z,11.67
2019-04-28T17:48:23.650Z,12.73
2019-04-28T17:50:52.832Z,13.17
2019-04-28T17:53:22.037Z,12.80
2019-04-28T17:55:52.486Z,13.43
2019-04-28T17:58:22.927Z,13.37
2019-04-28T18:00:59.066Z,12.13
2019-04-28T18:03:33.601Z,13.93
2019-04-28T18:06:17.653Z,13.73
2019-04-28T18:08:38.130Z,13.83
2019-04-28T18:11:07.329Z,14.70
2019-04-28T18:13:37.759Z,15.33
2019-04-28T18:16:13.881Z,14.97
2019-04-28T18:18:47.229Z,15.90
2019-04-28T18:21:16.454Z,16.10
2019-04-28T18:23:45.677Z,15.87
2019-04-28T18:26:14.850Z,16.53
2019-04-28T18:28:44.105Z,15.73
2019-04-28T18:32:25.416Z,18.47
2019-04-28T18:34:59.121Z,17.10
2019-04-28T18:37:59.060Z,17.87
2019-04-28T18:40:35.582Z,15.80
2019-04-28T18:43:10.043Z,17.27
2019-04-28T18:45:39.507Z,17.50
2019-04-28T18:48:08.745Z,19.33
2019-04-28T18:50:37.957Z,19.07
2019-04-28T18:53:10.088Z,19.57
2019-04-28T18:55:39.310Z,20.10
2019-04-28T18:58:08.477Z,19.20
2019-04-28T19:00:38.579Z,19.93
2019-04-28T19:03:07.780Z,20.97
2019-04-28T19:05:39.871Z,18.00
2019-04-28T19:08:18.805Z,19.43
2019-04-28T19:10:57.135Z,20.20
2019-04-28T19:13:29.066Z,20.17
2019-04-28T19:16:05.668Z,19.10
2019-04-28T19:18:36.799Z,21.53
2019-04-28T19:21:06.051Z,20.10
2019-04-28T19:23:36.730Z,21.17
2019-04-28T19:26:05.933Z,21.50
2019-04-28T19:28:35.410Z,22.30
2019-04-28T19:31:04.662Z,22.07
2019-04-28T19:33:33.872Z,22.27
2019-04-28T19:36:03.070Z,21.70
2019-04-28T19:38:32.282Z,21.33
2019-04-28T19:41:02.705Z,20.90
2019-04-28T19:43:32.113Z,20.47
2019-04-28T19:46:04.756Z,19.40
2019-04-28T19:48:35.709Z,19.77
2019-04-28T19:51:04.954Z,21.00
2019-04-28T19:53:36.504Z,20.37
2019-04-28T19:56:10.845Z,23.13
2019-04-28T19:58:43.809Z,20.90
2019-04-28T20:01:18.352Z,21.13
2019-04-28T20:03:47.558Z,20.73
2019-04-28T20:06:16.842Z,19.37
2019-04-28T20:08:46.081Z,19.97
2019-04-28T20:11:15.600Z,21.10
2019-04-28T20:13:44.813Z,20.57
2019-04-28T20:16:14.004Z,21.37
2019-04-28T20:18:44.499Z,20.50
2019-04-28T20:21:13.766Z,19.93
2019-04-28T20:23:44.109Z,19.97
2019-04-28T20:26:14.590Z,23.83
2019-04-28T20:28:43.810Z,21.27
2019-04-28T20:31:16.829Z,23.07
2019-04-28T20:33:46.076Z,21.73
2019-04-28T20:36:19.301Z,23.37
2019-04-28T20:38:49.042Z,23.73
2019-04-28T20:41:21.205Z,25.40
2019-04-28T20:43:50.416Z,23.67
2019-04-28T20:46:20.459Z,24.93
2019-04-28T20:48:51.841Z,25.97
2019-04-28T20:51:21.022Z,24.07
2019-04-28T20:53:50.259Z,25.43
2019-04-28T20:56:19.491Z,26.13
2019-04-28T20:58:48.746Z,26.63
2019-04-28T21:01:20.564Z,25.57
2019-04-28T21:03:49.789Z,27.57
2019-04-28T21:06:20.842Z,26.63
2019-04-28T21:08:50.053Z,26.57
2019-04-28T21:11:20.534Z,27.97
2019-04-28T21:13:49.705Z,25.63
2019-04-28T21:16:19.118Z,26.87
2019-04-28T21:18:48.365Z,26.80
2019-04-28T21:21:18.848Z,25.07
2019-04-28T21:23:49.742Z,23.50
2019-04-28T21:26:18.998Z,22.80
2019-04-28T21:28:49.588Z,23.83
2019-04-28T21:31:18.839Z,23.23
2019-04-28T21:33:48.214Z,21.97
2019-04-28T21:36:17.406Z,22.50
2019-04-28T21:38:47.208Z,22.97
2019-04-28T21:41:16.380Z,22.40
2019-04-28T21:43:52.722Z,21.93
2019-04-28T21:46:28.272Z,22.87
2019-04-28T21:49:03.333Z,22.90
2019-04-28T21:51:33.961Z,23.00
2019-04-28T21:54:04.289Z,22.23
2019-04-28T21:56:33.516Z,22.37
2019-04-28T21:59:02.693Z,21.37
2019-04-28T22:01:32.648Z,22.30
2019-04-28T22:04:01.901Z,19.90
2019-04-28T22:06:31.065Z,21.00
2019-04-28T22:09:00.272Z,21.27
2019-04-28T22:11:29.458Z,20.80
2019-04-28T22:13:58.641Z,21.43
2019-04-28T22:16:27.857Z,20.47
2019-04-28T22:18:57.028Z,19.90
2019-04-28T22:21:26.334Z,21.13
2019-04-28T22:24:14.361Z,20.67
2019-04-28T22:26:46.116Z,20.87
2019-04-28T22:29:15.322Z,20.73
2019-04-28T22:31:44.525Z,20.47
2019-04-28T22:34:13.952Z,20.97
2019-04-28T22:36:43.800Z,20.57
2019-04-28T22:39:12.996Z,21.10
2019-04-28T22:41:42.175Z,23.37
2019-04-28T22:44:12.652Z,21.27
2019-04-28T22:46:41.965Z,21.80
2019-04-28T22:49:11.189Z,21.13
2019-04-28T22:51:40.420Z,23.50
2019-04-28T22:54:13.785Z,22.00
2019-04-28T22:56:44.466Z,21.60
2019-04-28T22:59:17.026Z,21.43
2019-04-28T23:01:50.046Z,21.47
2019-04-28T23:04:26.532Z,21.33
2019-04-28T23:06:55.746Z,22.10
2019-04-28T23:09:24.933Z,22.83
2019-04-28T23:11:54.123Z,21.47
2019-04-28T23:14:24.551Z,22.33
2019-04-28T23:16:54.169Z,22.80
2019-04-28T23:19:24.133Z,23.17
2019-04-28T23:21:59.905Z,23.73
2019-04-28T23:24:29.256Z,22.43
2019-04-28T23:26:58.439Z,22.37
2019-04-28T23:29:30.480Z,24.70
2019-04-28T23:31:56.873Z,22.23
2019-04-28T23:34:26.051Z,23.30
2019-04-28T23:36:55.242Z,22.70
2019-04-28T23:39:24.462Z,21.57
2019-04-28T23:42:02.139Z,20.83
2019-04-28T23:44:31.369Z,22.27
2019-04-28T23:47:00.650Z,23.67
2019-04-28T23:49:29.865Z,21.33
2019-04-28T23:52:03.385Z,21.03
2019-04-28T23:54:33.041Z,22.07
2019-04-28T23:57:02.269Z,21.37
2019-04-28T23:59:31.459Z,19.40
